<?xml version="1.0" encoding="UTF-8" standalone="no" ?>
<gpx xmlns="http://www.topografix.com/GPX/1/1" xmlns:xsi="http://www.w3.org/2001/XMLSchema-instance" xsi:schemaLocation="http://www.topografix.com/GPX/1/1 http://www.topografix.com/GPX/1/1/gpx.xsd" version="1.1" creator="VisuGPX - https://www.visugpx.com">
  <metadata>
    <name>Lancieux</name>
  </metadata>
  <trk>
    <name><![CDATA[Sequence 4]]></name>
    <trkseg>
      <trkpt lat="48.59269" lon="-2.03442">
        <ele>26</ele>
        <time>2017-06-18T09:07:51Z</time>
      </trkpt>
      <trkpt lat="48.59271" lon="-2.03482">
        <ele>24</ele>
        <time>2017-06-18T09:07:56Z</time>
      </trkpt>
      <trkpt lat="48.59293" lon="-2.03505">
        <ele>20</ele>
        <time>2017-06-18T09:08:01Z</time>
      </trkpt>
      <trkpt lat="48.59314" lon="-2.03527">
        <ele>21</ele>
        <time>2017-06-18T09:08:06Z</time>
      </trkpt>
      <trkpt lat="48.59328" lon="-2.03539">
        <ele>16</ele>
        <time>2017-06-18T09:08:11Z</time>
      </trkpt>
      <trkpt lat="48.5935" lon="-2.03561">
        <ele>10</ele>
        <time>2017-06-18T09:08:16Z</time>
      </trkpt>
      <trkpt lat="48.59377" lon="-2.03587">
        <ele>20</ele>
        <time>2017-06-18T09:08:25Z</time>
      </trkpt>
      <trkpt lat="48.59379" lon="-2.03587">
        <ele>20</ele>
        <time>2017-06-18T09:08:26Z</time>
      </trkpt>
      <trkpt lat="48.59392" lon="-2.03599">
        <ele>16</ele>
        <time>2017-06-18T09:08:31Z</time>
      </trkpt>
      <trkpt lat="48.59407" lon="-2.03611">
        <ele>9</ele>
        <time>2017-06-18T09:08:36Z</time>
      </trkpt>
      <trkpt lat="48.59435" lon="-2.03638">
        <ele>13</ele>
        <time>2017-06-18T09:08:43Z</time>
      </trkpt>
      <trkpt lat="48.59445" lon="-2.0365">
        <ele>13</ele>
        <time>2017-06-18T09:08:46Z</time>
      </trkpt>
      <trkpt lat="48.59465" lon="-2.0367">
        <ele>7</ele>
        <time>2017-06-18T09:08:51Z</time>
      </trkpt>
      <trkpt lat="48.59493" lon="-2.03694">
        <ele>14</ele>
        <time>2017-06-18T09:08:57Z</time>
      </trkpt>
      <trkpt lat="48.5951" lon="-2.03729">
        <ele>13</ele>
        <time>2017-06-18T09:09:05Z</time>
      </trkpt>
      <trkpt lat="48.59517" lon="-2.03738">
        <ele>15</ele>
        <time>2017-06-18T09:09:07Z</time>
      </trkpt>
      <trkpt lat="48.59533" lon="-2.03757">
        <ele>14</ele>
        <time>2017-06-18T09:09:11Z</time>
      </trkpt>
      <trkpt lat="48.59547" lon="-2.03772">
        <ele>14</ele>
        <time>2017-06-18T09:09:17Z</time>
      </trkpt>
      <trkpt lat="48.59577" lon="-2.0378">
        <ele>18</ele>
        <time>2017-06-18T09:09:23Z</time>
      </trkpt>
      <trkpt lat="48.59591" lon="-2.0379">
        <ele>16</ele>
        <time>2017-06-18T09:09:30Z</time>
      </trkpt>
      <trkpt lat="48.59587" lon="-2.03798">
        <ele>13</ele>
        <time>2017-06-18T09:09:33Z</time>
      </trkpt>
      <trkpt lat="48.59578" lon="-2.03811">
        <ele>12</ele>
        <time>2017-06-18T09:09:37Z</time>
      </trkpt>
      <trkpt lat="48.59577" lon="-2.0384">
        <ele>11</ele>
        <time>2017-06-18T09:09:44Z</time>
      </trkpt>
      <trkpt lat="48.59574" lon="-2.03855">
        <ele>12</ele>
        <time>2017-06-18T09:09:48Z</time>
      </trkpt>
      <trkpt lat="48.59572" lon="-2.03878">
        <ele>13</ele>
        <time>2017-06-18T09:09:52Z</time>
      </trkpt>
      <trkpt lat="48.59571" lon="-2.03903">
        <ele>14</ele>
        <time>2017-06-18T09:09:55Z</time>
      </trkpt>
      <trkpt lat="48.59567" lon="-2.03938">
        <ele>16</ele>
        <time>2017-06-18T09:10:02Z</time>
      </trkpt>
      <trkpt lat="48.59574" lon="-2.03942">
        <ele>17</ele>
        <time>2017-06-18T09:10:06Z</time>
      </trkpt>
      <trkpt lat="48.59583" lon="-2.03944">
        <ele>20</ele>
        <time>2017-06-18T09:10:10Z</time>
      </trkpt>
      <trkpt lat="48.59595" lon="-2.03949">
        <ele>23</ele>
        <time>2017-06-18T09:10:15Z</time>
      </trkpt>
      <trkpt lat="48.59602" lon="-2.03952">
        <ele>23</ele>
        <time>2017-06-18T09:10:21Z</time>
      </trkpt>
      <trkpt lat="48.5961" lon="-2.0394">
        <ele>21</ele>
        <time>2017-06-18T09:10:26Z</time>
      </trkpt>
      <trkpt lat="48.59625" lon="-2.0392">
        <ele>19</ele>
        <time>2017-06-18T09:10:30Z</time>
      </trkpt>
      <trkpt lat="48.59653" lon="-2.03895">
        <ele>20</ele>
        <time>2017-06-18T09:10:37Z</time>
      </trkpt>
      <trkpt lat="48.59675" lon="-2.03878">
        <ele>18</ele>
        <time>2017-06-18T09:10:41Z</time>
      </trkpt>
      <trkpt lat="48.59713" lon="-2.03866">
        <ele>14</ele>
        <time>2017-06-18T09:10:47Z</time>
      </trkpt>
      <trkpt lat="48.59736" lon="-2.03869">
        <ele>15</ele>
        <time>2017-06-18T09:10:50Z</time>
      </trkpt>
      <trkpt lat="48.59765" lon="-2.03882">
        <ele>16</ele>
        <time>2017-06-18T09:10:57Z</time>
      </trkpt>
      <trkpt lat="48.59795" lon="-2.03889">
        <ele>17</ele>
        <time>2017-06-18T09:11:03Z</time>
      </trkpt>
      <trkpt lat="48.59829" lon="-2.03888">
        <ele>17</ele>
        <time>2017-06-18T09:11:10Z</time>
      </trkpt>
      <trkpt lat="48.59834" lon="-2.03888">
        <ele>17</ele>
        <time>2017-06-18T09:11:10Z</time>
      </trkpt>
      <trkpt lat="48.59859" lon="-2.0388">
        <ele>19</ele>
        <time>2017-06-18T09:11:15Z</time>
      </trkpt>
      <trkpt lat="48.59891" lon="-2.03875">
        <ele>21</ele>
        <time>2017-06-18T09:11:22Z</time>
      </trkpt>
      <trkpt lat="48.5991" lon="-2.03871">
        <ele>20</ele>
        <time>2017-06-18T09:11:26Z</time>
      </trkpt>
      <trkpt lat="48.59935" lon="-2.03866">
        <ele>22</ele>
        <time>2017-06-18T09:11:30Z</time>
      </trkpt>
      <trkpt lat="48.59958" lon="-2.0387">
        <ele>22</ele>
        <time>2017-06-18T09:11:38Z</time>
      </trkpt>
      <trkpt lat="48.59957" lon="-2.03877">
        <ele>22</ele>
        <time>2017-06-18T09:11:40Z</time>
      </trkpt>
      <trkpt lat="48.59958" lon="-2.03896">
        <ele>23</ele>
        <time>2017-06-18T09:11:46Z</time>
      </trkpt>
      <trkpt lat="48.59958" lon="-2.03918">
        <ele>24</ele>
        <time>2017-06-18T09:11:52Z</time>
      </trkpt>
      <trkpt lat="48.59957" lon="-2.03931">
        <ele>26</ele>
        <time>2017-06-18T09:11:55Z</time>
      </trkpt>
      <trkpt lat="48.59956" lon="-2.03947">
        <ele>25</ele>
        <time>2017-06-18T09:12:01Z</time>
      </trkpt>
      <trkpt lat="48.59953" lon="-2.03968">
        <ele>26</ele>
        <time>2017-06-18T09:12:06Z</time>
      </trkpt>
      <trkpt lat="48.59951" lon="-2.03983">
        <ele>26</ele>
        <time>2017-06-18T09:12:10Z</time>
      </trkpt>
      <trkpt lat="48.59948" lon="-2.04">
        <ele>27</ele>
        <time>2017-06-18T09:12:15Z</time>
      </trkpt>
      <trkpt lat="48.59946" lon="-2.04019">
        <ele>28</ele>
        <time>2017-06-18T09:12:21Z</time>
      </trkpt>
      <trkpt lat="48.59944" lon="-2.04038">
        <ele>30</ele>
        <time>2017-06-18T09:12:25Z</time>
      </trkpt>
      <trkpt lat="48.59941" lon="-2.04056">
        <ele>30</ele>
        <time>2017-06-18T09:12:31Z</time>
      </trkpt>
      <trkpt lat="48.5994" lon="-2.04077">
        <ele>31</ele>
        <time>2017-06-18T09:12:37Z</time>
      </trkpt>
      <trkpt lat="48.59939" lon="-2.04098">
        <ele>30</ele>
        <time>2017-06-18T09:12:43Z</time>
      </trkpt>
      <trkpt lat="48.59938" lon="-2.0411">
        <ele>29</ele>
        <time>2017-06-18T09:12:46Z</time>
      </trkpt>
      <trkpt lat="48.5994" lon="-2.04122">
        <ele>29</ele>
        <time>2017-06-18T09:12:51Z</time>
      </trkpt>
      <trkpt lat="48.5994" lon="-2.04141">
        <ele>30</ele>
        <time>2017-06-18T09:12:56Z</time>
      </trkpt>
      <trkpt lat="48.59941" lon="-2.04157">
        <ele>30</ele>
        <time>2017-06-18T09:13:00Z</time>
      </trkpt>
      <trkpt lat="48.59942" lon="-2.04186">
        <ele>31</ele>
        <time>2017-06-18T09:13:07Z</time>
      </trkpt>
      <trkpt lat="48.59943" lon="-2.04198">
        <ele>32</ele>
        <time>2017-06-18T09:13:11Z</time>
      </trkpt>
      <trkpt lat="48.59944" lon="-2.04229">
        <ele>31</ele>
        <time>2017-06-18T09:13:19Z</time>
      </trkpt>
      <trkpt lat="48.59943" lon="-2.04236">
        <ele>31</ele>
        <time>2017-06-18T09:13:21Z</time>
      </trkpt>
      <trkpt lat="48.59935" lon="-2.04249">
        <ele>31</ele>
        <time>2017-06-18T09:13:25Z</time>
      </trkpt>
      <trkpt lat="48.59927" lon="-2.04256">
        <ele>35</ele>
        <time>2017-06-18T09:13:31Z</time>
      </trkpt>
      <trkpt lat="48.59914" lon="-2.04267">
        <ele>35</ele>
        <time>2017-06-18T09:13:36Z</time>
      </trkpt>
      <trkpt lat="48.59906" lon="-2.04276">
        <ele>36</ele>
        <time>2017-06-18T09:13:40Z</time>
      </trkpt>
      <trkpt lat="48.59896" lon="-2.04286">
        <ele>35</ele>
        <time>2017-06-18T09:13:45Z</time>
      </trkpt>
      <trkpt lat="48.59883" lon="-2.04302">
        <ele>37</ele>
        <time>2017-06-18T09:13:53Z</time>
      </trkpt>
      <trkpt lat="48.59884" lon="-2.04302">
        <ele>36</ele>
        <time>2017-06-18T09:13:56Z</time>
      </trkpt>
      <trkpt lat="48.59884" lon="-2.04302">
        <ele>36</ele>
        <time>2017-06-18T09:13:59Z</time>
      </trkpt>
      <trkpt lat="48.59884" lon="-2.04302">
        <ele>36</ele>
        <time>2017-06-18T09:14:01Z</time>
      </trkpt>
      <trkpt lat="48.59884" lon="-2.04301">
        <ele>36</ele>
        <time>2017-06-18T09:14:04Z</time>
      </trkpt>
      <trkpt lat="48.59884" lon="-2.04301">
        <ele>36</ele>
        <time>2017-06-18T09:14:07Z</time>
      </trkpt>
      <trkpt lat="48.59884" lon="-2.04301">
        <ele>36</ele>
        <time>2017-06-18T09:14:10Z</time>
      </trkpt>
      <trkpt lat="48.59884" lon="-2.04301">
        <ele>36</ele>
        <time>2017-06-18T09:14:13Z</time>
      </trkpt>
      <trkpt lat="48.59884" lon="-2.04301">
        <ele>36</ele>
        <time>2017-06-18T09:14:16Z</time>
      </trkpt>
      <trkpt lat="48.59882" lon="-2.04304">
        <ele>39</ele>
        <time>2017-06-18T09:14:19Z</time>
      </trkpt>
      <trkpt lat="48.5988" lon="-2.04317">
        <ele>35</ele>
        <time>2017-06-18T09:14:24Z</time>
      </trkpt>
      <trkpt lat="48.59884" lon="-2.04339">
        <ele>36</ele>
        <time>2017-06-18T09:14:30Z</time>
      </trkpt>
      <trkpt lat="48.59891" lon="-2.04371">
        <ele>36</ele>
        <time>2017-06-18T09:14:36Z</time>
      </trkpt>
      <trkpt lat="48.59893" lon="-2.04389">
        <ele>36</ele>
        <time>2017-06-18T09:14:39Z</time>
      </trkpt>
      <trkpt lat="48.59899" lon="-2.04416">
        <ele>35</ele>
        <time>2017-06-18T09:14:48Z</time>
      </trkpt>
      <trkpt lat="48.599" lon="-2.04422">
        <ele>38</ele>
        <time>2017-06-18T09:14:52Z</time>
      </trkpt>
      <trkpt lat="48.59897" lon="-2.04414">
        <ele>39</ele>
        <time>2017-06-18T09:14:54Z</time>
      </trkpt>
      <trkpt lat="48.59896" lon="-2.04408">
        <ele>40</ele>
        <time>2017-06-18T09:14:59Z</time>
      </trkpt>
      <trkpt lat="48.59896" lon="-2.04407">
        <ele>39</ele>
        <time>2017-06-18T09:15:05Z</time>
      </trkpt>
      <trkpt lat="48.59893" lon="-2.04391">
        <ele>37</ele>
        <time>2017-06-18T09:15:10Z</time>
      </trkpt>
      <trkpt lat="48.59891" lon="-2.0438">
        <ele>38</ele>
        <time>2017-06-18T09:15:12Z</time>
      </trkpt>
      <trkpt lat="48.59885" lon="-2.04349">
        <ele>37</ele>
        <time>2017-06-18T09:15:17Z</time>
      </trkpt>
      <trkpt lat="48.59879" lon="-2.04321">
        <ele>37</ele>
        <time>2017-06-18T09:15:23Z</time>
      </trkpt>
      <trkpt lat="48.59875" lon="-2.04306">
        <ele>36</ele>
        <time>2017-06-18T09:15:28Z</time>
      </trkpt>
      <trkpt lat="48.59883" lon="-2.04321">
        <ele>36</ele>
        <time>2017-06-18T09:15:32Z</time>
      </trkpt>
      <trkpt lat="48.59889" lon="-2.04351">
        <ele>34</ele>
        <time>2017-06-18T09:15:37Z</time>
      </trkpt>
      <trkpt lat="48.59897" lon="-2.04391">
        <ele>35</ele>
        <time>2017-06-18T09:15:42Z</time>
      </trkpt>
      <trkpt lat="48.59908" lon="-2.04462">
        <ele>36</ele>
        <time>2017-06-18T09:15:52Z</time>
      </trkpt>
      <trkpt lat="48.59909" lon="-2.04469">
        <ele>36</ele>
        <time>2017-06-18T09:15:53Z</time>
      </trkpt>
      <trkpt lat="48.59912" lon="-2.04487">
        <ele>37</ele>
        <time>2017-06-18T09:15:57Z</time>
      </trkpt>
      <trkpt lat="48.59918" lon="-2.04523">
        <ele>37</ele>
        <time>2017-06-18T09:16:02Z</time>
      </trkpt>
      <trkpt lat="48.59927" lon="-2.04566">
        <ele>36</ele>
        <time>2017-06-18T09:16:08Z</time>
      </trkpt>
      <trkpt lat="48.59936" lon="-2.04613">
        <ele>35</ele>
        <time>2017-06-18T09:16:13Z</time>
      </trkpt>
      <trkpt lat="48.59949" lon="-2.0468">
        <ele>33</ele>
        <time>2017-06-18T09:16:19Z</time>
      </trkpt>
      <trkpt lat="48.59959" lon="-2.04725">
        <ele>32</ele>
        <time>2017-06-18T09:16:23Z</time>
      </trkpt>
      <trkpt lat="48.59974" lon="-2.048">
        <ele>28</ele>
        <time>2017-06-18T09:16:29Z</time>
      </trkpt>
      <trkpt lat="48.59981" lon="-2.04825">
        <ele>27</ele>
        <time>2017-06-18T09:16:33Z</time>
      </trkpt>
      <trkpt lat="48.59985" lon="-2.0484">
        <ele>24</ele>
        <time>2017-06-18T09:16:38Z</time>
      </trkpt>
      <trkpt lat="48.59993" lon="-2.04834">
        <ele>24</ele>
        <time>2017-06-18T09:16:43Z</time>
      </trkpt>
      <trkpt lat="48.60002" lon="-2.04833">
        <ele>29</ele>
        <time>2017-06-18T09:16:49Z</time>
      </trkpt>
      <trkpt lat="48.6002" lon="-2.04829">
        <ele>28</ele>
        <time>2017-06-18T09:16:56Z</time>
      </trkpt>
      <trkpt lat="48.6002" lon="-2.04829">
        <ele>28</ele>
        <time>2017-06-18T09:16:58Z</time>
      </trkpt>
      <trkpt lat="48.60034" lon="-2.04824">
        <ele>25</ele>
        <time>2017-06-18T09:17:04Z</time>
      </trkpt>
      <trkpt lat="48.60042" lon="-2.04817">
        <ele>22</ele>
        <time>2017-06-18T09:17:05Z</time>
      </trkpt>
      <trkpt lat="48.60064" lon="-2.04819">
        <ele>22</ele>
        <time>2017-06-18T09:17:12Z</time>
      </trkpt>
      <trkpt lat="48.6007" lon="-2.0482">
        <ele>24</ele>
        <time>2017-06-18T09:17:18Z</time>
      </trkpt>
      <trkpt lat="48.6007" lon="-2.0482">
        <ele>25</ele>
        <time>2017-06-18T09:17:20Z</time>
      </trkpt>
      <trkpt lat="48.60072" lon="-2.0482">
        <ele>26</ele>
        <time>2017-06-18T09:17:26Z</time>
      </trkpt>
      <trkpt lat="48.60074" lon="-2.04821">
        <ele>29</ele>
        <time>2017-06-18T09:17:28Z</time>
      </trkpt>
      <trkpt lat="48.60079" lon="-2.04823">
        <ele>27</ele>
        <time>2017-06-18T09:17:34Z</time>
      </trkpt>
      <trkpt lat="48.60081" lon="-2.04827">
        <ele>27</ele>
        <time>2017-06-18T09:17:40Z</time>
      </trkpt>
      <trkpt lat="48.60084" lon="-2.04836">
        <ele>27</ele>
        <time>2017-06-18T09:17:43Z</time>
      </trkpt>
      <trkpt lat="48.60095" lon="-2.04857">
        <ele>24</ele>
        <time>2017-06-18T09:17:53Z</time>
      </trkpt>
      <trkpt lat="48.60098" lon="-2.04863">
        <ele>23</ele>
        <time>2017-06-18T09:17:57Z</time>
      </trkpt>
      <trkpt lat="48.60101" lon="-2.04871">
        <ele>23</ele>
        <time>2017-06-18T09:18:00Z</time>
      </trkpt>
      <trkpt lat="48.60108" lon="-2.04886">
        <ele>24</ele>
        <time>2017-06-18T09:18:04Z</time>
      </trkpt>
      <trkpt lat="48.60113" lon="-2.04898">
        <ele>29</ele>
        <time>2017-06-18T09:18:08Z</time>
      </trkpt>
      <trkpt lat="48.60119" lon="-2.04913">
        <ele>30</ele>
        <time>2017-06-18T09:18:14Z</time>
      </trkpt>
      <trkpt lat="48.60123" lon="-2.04926">
        <ele>28</ele>
        <time>2017-06-18T09:18:19Z</time>
      </trkpt>
      <trkpt lat="48.60126" lon="-2.04935">
        <ele>29</ele>
        <time>2017-06-18T09:18:24Z</time>
      </trkpt>
      <trkpt lat="48.60131" lon="-2.04944">
        <ele>30</ele>
        <time>2017-06-18T09:18:29Z</time>
      </trkpt>
      <trkpt lat="48.60136" lon="-2.04954">
        <ele>31</ele>
        <time>2017-06-18T09:18:34Z</time>
      </trkpt>
      <trkpt lat="48.6014" lon="-2.04965">
        <ele>32</ele>
        <time>2017-06-18T09:18:39Z</time>
      </trkpt>
      <trkpt lat="48.60145" lon="-2.04977">
        <ele>33</ele>
        <time>2017-06-18T09:18:43Z</time>
      </trkpt>
      <trkpt lat="48.60149" lon="-2.04988">
        <ele>32</ele>
        <time>2017-06-18T09:18:49Z</time>
      </trkpt>
      <trkpt lat="48.60156" lon="-2.04999">
        <ele>34</ele>
        <time>2017-06-18T09:18:53Z</time>
      </trkpt>
      <trkpt lat="48.60161" lon="-2.05008">
        <ele>34</ele>
        <time>2017-06-18T09:18:58Z</time>
      </trkpt>
      <trkpt lat="48.60166" lon="-2.05017">
        <ele>34</ele>
        <time>2017-06-18T09:19:03Z</time>
      </trkpt>
      <trkpt lat="48.60171" lon="-2.05024">
        <ele>36</ele>
        <time>2017-06-18T09:19:08Z</time>
      </trkpt>
      <trkpt lat="48.60174" lon="-2.05035">
        <ele>41</ele>
        <time>2017-06-18T09:19:13Z</time>
      </trkpt>
      <trkpt lat="48.60177" lon="-2.05046">
        <ele>42</ele>
        <time>2017-06-18T09:19:19Z</time>
      </trkpt>
      <trkpt lat="48.6018" lon="-2.05058">
        <ele>42</ele>
        <time>2017-06-18T09:19:24Z</time>
      </trkpt>
      <trkpt lat="48.60183" lon="-2.0507">
        <ele>41</ele>
        <time>2017-06-18T09:19:29Z</time>
      </trkpt>
      <trkpt lat="48.60186" lon="-2.05081">
        <ele>42</ele>
        <time>2017-06-18T09:19:34Z</time>
      </trkpt>
      <trkpt lat="48.60193" lon="-2.05089">
        <ele>43</ele>
        <time>2017-06-18T09:19:39Z</time>
      </trkpt>
      <trkpt lat="48.60203" lon="-2.05097">
        <ele>46</ele>
        <time>2017-06-18T09:19:45Z</time>
      </trkpt>
      <trkpt lat="48.60212" lon="-2.051">
        <ele>46</ele>
        <time>2017-06-18T09:19:48Z</time>
      </trkpt>
      <trkpt lat="48.60227" lon="-2.051">
        <ele>47</ele>
        <time>2017-06-18T09:19:54Z</time>
      </trkpt>
      <trkpt lat="48.60246" lon="-2.05093">
        <ele>46</ele>
        <time>2017-06-18T09:20:00Z</time>
      </trkpt>
      <trkpt lat="48.60259" lon="-2.05084">
        <ele>45</ele>
        <time>2017-06-18T09:20:04Z</time>
      </trkpt>
      <trkpt lat="48.60278" lon="-2.05061">
        <ele>46</ele>
        <time>2017-06-18T09:20:10Z</time>
      </trkpt>
      <trkpt lat="48.60292" lon="-2.05043">
        <ele>46</ele>
        <time>2017-06-18T09:20:14Z</time>
      </trkpt>
      <trkpt lat="48.60311" lon="-2.05021">
        <ele>47</ele>
        <time>2017-06-18T09:20:18Z</time>
      </trkpt>
      <trkpt lat="48.60329" lon="-2.05005">
        <ele>46</ele>
        <time>2017-06-18T09:20:24Z</time>
      </trkpt>
      <trkpt lat="48.60348" lon="-2.04992">
        <ele>46</ele>
        <time>2017-06-18T09:20:29Z</time>
      </trkpt>
      <trkpt lat="48.60366" lon="-2.0498">
        <ele>45</ele>
        <time>2017-06-18T09:20:33Z</time>
      </trkpt>
      <trkpt lat="48.60385" lon="-2.04968">
        <ele>46</ele>
        <time>2017-06-18T09:20:39Z</time>
      </trkpt>
      <trkpt lat="48.60404" lon="-2.04959">
        <ele>46</ele>
        <time>2017-06-18T09:20:44Z</time>
      </trkpt>
      <trkpt lat="48.60422" lon="-2.04948">
        <ele>45</ele>
        <time>2017-06-18T09:20:49Z</time>
      </trkpt>
      <trkpt lat="48.60428" lon="-2.04957">
        <ele>44</ele>
        <time>2017-06-18T09:20:54Z</time>
      </trkpt>
      <trkpt lat="48.60434" lon="-2.04978">
        <ele>47</ele>
        <time>2017-06-18T09:20:58Z</time>
      </trkpt>
      <trkpt lat="48.60439" lon="-2.05002">
        <ele>48</ele>
        <time>2017-06-18T09:21:03Z</time>
      </trkpt>
      <trkpt lat="48.60454" lon="-2.05048">
        <ele>49</ele>
        <time>2017-06-18T09:21:10Z</time>
      </trkpt>
      <trkpt lat="48.60464" lon="-2.0508">
        <ele>48</ele>
        <time>2017-06-18T09:21:14Z</time>
      </trkpt>
      <trkpt lat="48.60473" lon="-2.05114">
        <ele>46</ele>
        <time>2017-06-18T09:21:18Z</time>
      </trkpt>
      <trkpt lat="48.60487" lon="-2.05147">
        <ele>42</ele>
        <time>2017-06-18T09:21:23Z</time>
      </trkpt>
      <trkpt lat="48.60499" lon="-2.05181">
        <ele>40</ele>
        <time>2017-06-18T09:21:28Z</time>
      </trkpt>
      <trkpt lat="48.60535" lon="-2.05221">
        <ele>39</ele>
        <time>2017-06-18T09:21:34Z</time>
      </trkpt>
      <trkpt lat="48.60566" lon="-2.05288">
        <ele>33</ele>
        <time>2017-06-18T09:21:41Z</time>
      </trkpt>
      <trkpt lat="48.60575" lon="-2.05304">
        <ele>34</ele>
        <time>2017-06-18T09:21:44Z</time>
      </trkpt>
      <trkpt lat="48.60587" lon="-2.05348">
        <ele>37</ele>
        <time>2017-06-18T09:21:51Z</time>
      </trkpt>
      <trkpt lat="48.60588" lon="-2.0536">
        <ele>39</ele>
        <time>2017-06-18T09:21:53Z</time>
      </trkpt>
      <trkpt lat="48.60589" lon="-2.05392">
        <ele>40</ele>
        <time>2017-06-18T09:22:00Z</time>
      </trkpt>
      <trkpt lat="48.60587" lon="-2.05422">
        <ele>41</ele>
        <time>2017-06-18T09:22:06Z</time>
      </trkpt>
      <trkpt lat="48.60586" lon="-2.05441">
        <ele>41</ele>
        <time>2017-06-18T09:22:09Z</time>
      </trkpt>
      <trkpt lat="48.60582" lon="-2.05473">
        <ele>41</ele>
        <time>2017-06-18T09:22:14Z</time>
      </trkpt>
      <trkpt lat="48.60579" lon="-2.05518">
        <ele>41</ele>
        <time>2017-06-18T09:22:20Z</time>
      </trkpt>
      <trkpt lat="48.60578" lon="-2.05537">
        <ele>41</ele>
        <time>2017-06-18T09:22:23Z</time>
      </trkpt>
      <trkpt lat="48.6058" lon="-2.05569">
        <ele>42</ele>
        <time>2017-06-18T09:22:28Z</time>
      </trkpt>
      <trkpt lat="48.60581" lon="-2.05608">
        <ele>42</ele>
        <time>2017-06-18T09:22:35Z</time>
      </trkpt>
      <trkpt lat="48.60577" lon="-2.05626">
        <ele>40</ele>
        <time>2017-06-18T09:22:38Z</time>
      </trkpt>
      <trkpt lat="48.60576" lon="-2.05628">
        <ele>41</ele>
        <time>2017-06-18T09:22:43Z</time>
      </trkpt>
      <trkpt lat="48.60576" lon="-2.05631">
        <ele>41</ele>
        <time>2017-06-18T09:22:47Z</time>
      </trkpt>
      <trkpt lat="48.60583" lon="-2.05636">
        <ele>43</ele>
        <time>2017-06-18T09:22:52Z</time>
      </trkpt>
      <trkpt lat="48.60595" lon="-2.05643">
        <ele>44</ele>
        <time>2017-06-18T09:22:57Z</time>
      </trkpt>
      <trkpt lat="48.60613" lon="-2.05649">
        <ele>42</ele>
        <time>2017-06-18T09:23:01Z</time>
      </trkpt>
      <trkpt lat="48.6063" lon="-2.05659">
        <ele>43</ele>
        <time>2017-06-18T09:23:07Z</time>
      </trkpt>
      <trkpt lat="48.60643" lon="-2.0567">
        <ele>43</ele>
        <time>2017-06-18T09:23:12Z</time>
      </trkpt>
      <trkpt lat="48.60642" lon="-2.05676">
        <ele>43</ele>
        <time>2017-06-18T09:23:17Z</time>
      </trkpt>
      <trkpt lat="48.60638" lon="-2.05684">
        <ele>43</ele>
        <time>2017-06-18T09:23:22Z</time>
      </trkpt>
      <trkpt lat="48.60614" lon="-2.05687">
        <ele>42</ele>
        <time>2017-06-18T09:23:27Z</time>
      </trkpt>
      <trkpt lat="48.60585" lon="-2.05686">
        <ele>41</ele>
        <time>2017-06-18T09:23:32Z</time>
      </trkpt>
      <trkpt lat="48.60534" lon="-2.05689">
        <ele>38</ele>
        <time>2017-06-18T09:23:39Z</time>
      </trkpt>
      <trkpt lat="48.60504" lon="-2.05687">
        <ele>35</ele>
        <time>2017-06-18T09:23:43Z</time>
      </trkpt>
      <trkpt lat="48.6048" lon="-2.05687">
        <ele>34</ele>
        <time>2017-06-18T09:23:47Z</time>
      </trkpt>
      <trkpt lat="48.60441" lon="-2.05686">
        <ele>33</ele>
        <time>2017-06-18T09:23:51Z</time>
      </trkpt>
      <trkpt lat="48.604" lon="-2.05688">
        <ele>31</ele>
        <time>2017-06-18T09:23:57Z</time>
      </trkpt>
      <trkpt lat="48.60364" lon="-2.05693">
        <ele>30</ele>
        <time>2017-06-18T09:24:02Z</time>
      </trkpt>
      <trkpt lat="48.60353" lon="-2.05739">
        <ele>30</ele>
        <time>2017-06-18T09:24:07Z</time>
      </trkpt>
      <trkpt lat="48.60342" lon="-2.05834">
        <ele>31</ele>
        <time>2017-06-18T09:24:15Z</time>
      </trkpt>
      <trkpt lat="48.60339" lon="-2.05852">
        <ele>32</ele>
        <time>2017-06-18T09:24:17Z</time>
      </trkpt>
      <trkpt lat="48.60339" lon="-2.05887">
        <ele>34</ele>
        <time>2017-06-18T09:24:22Z</time>
      </trkpt>
      <trkpt lat="48.60341" lon="-2.05921">
        <ele>35</ele>
        <time>2017-06-18T09:24:26Z</time>
      </trkpt>
      <trkpt lat="48.60346" lon="-2.05952">
        <ele>36</ele>
        <time>2017-06-18T09:24:33Z</time>
      </trkpt>
      <trkpt lat="48.60352" lon="-2.05974">
        <ele>38</ele>
        <time>2017-06-18T09:24:37Z</time>
      </trkpt>
      <trkpt lat="48.60358" lon="-2.05994">
        <ele>38</ele>
        <time>2017-06-18T09:24:42Z</time>
      </trkpt>
      <trkpt lat="48.60368" lon="-2.06019">
        <ele>39</ele>
        <time>2017-06-18T09:24:46Z</time>
      </trkpt>
      <trkpt lat="48.60379" lon="-2.06052">
        <ele>42</ele>
        <time>2017-06-18T09:24:54Z</time>
      </trkpt>
      <trkpt lat="48.60383" lon="-2.06065">
        <ele>44</ele>
        <time>2017-06-18T09:24:57Z</time>
      </trkpt>
      <trkpt lat="48.60395" lon="-2.06097">
        <ele>46</ele>
        <time>2017-06-18T09:25:03Z</time>
      </trkpt>
      <trkpt lat="48.60399" lon="-2.06115">
        <ele>45</ele>
        <time>2017-06-18T09:25:08Z</time>
      </trkpt>
      <trkpt lat="48.60405" lon="-2.06135">
        <ele>48</ele>
        <time>2017-06-18T09:25:12Z</time>
      </trkpt>
      <trkpt lat="48.60413" lon="-2.0617">
        <ele>45</ele>
        <time>2017-06-18T09:25:18Z</time>
      </trkpt>
      <trkpt lat="48.60417" lon="-2.06184">
        <ele>45</ele>
        <time>2017-06-18T09:25:21Z</time>
      </trkpt>
      <trkpt lat="48.60424" lon="-2.06208">
        <ele>46</ele>
        <time>2017-06-18T09:25:27Z</time>
      </trkpt>
      <trkpt lat="48.6043" lon="-2.06228">
        <ele>45</ele>
        <time>2017-06-18T09:25:32Z</time>
      </trkpt>
      <trkpt lat="48.60436" lon="-2.06245">
        <ele>47</ele>
        <time>2017-06-18T09:25:37Z</time>
      </trkpt>
      <trkpt lat="48.60441" lon="-2.06259">
        <ele>48</ele>
        <time>2017-06-18T09:25:42Z</time>
      </trkpt>
      <trkpt lat="48.60446" lon="-2.06277">
        <ele>49</ele>
        <time>2017-06-18T09:25:47Z</time>
      </trkpt>
      <trkpt lat="48.60451" lon="-2.06296">
        <ele>49</ele>
        <time>2017-06-18T09:25:52Z</time>
      </trkpt>
      <trkpt lat="48.60455" lon="-2.06313">
        <ele>48</ele>
        <time>2017-06-18T09:25:57Z</time>
      </trkpt>
      <trkpt lat="48.60459" lon="-2.06332">
        <ele>49</ele>
        <time>2017-06-18T09:26:02Z</time>
      </trkpt>
      <trkpt lat="48.60465" lon="-2.06354">
        <ele>47</ele>
        <time>2017-06-18T09:26:06Z</time>
      </trkpt>
      <trkpt lat="48.6047" lon="-2.06378">
        <ele>47</ele>
        <time>2017-06-18T09:26:12Z</time>
      </trkpt>
      <trkpt lat="48.60474" lon="-2.06402">
        <ele>47</ele>
        <time>2017-06-18T09:26:17Z</time>
      </trkpt>
      <trkpt lat="48.60476" lon="-2.06426">
        <ele>47</ele>
        <time>2017-06-18T09:26:22Z</time>
      </trkpt>
      <trkpt lat="48.6048" lon="-2.06453">
        <ele>47</ele>
        <time>2017-06-18T09:26:27Z</time>
      </trkpt>
      <trkpt lat="48.60485" lon="-2.06479">
        <ele>47</ele>
        <time>2017-06-18T09:26:32Z</time>
      </trkpt>
      <trkpt lat="48.60488" lon="-2.06498">
        <ele>48</ele>
        <time>2017-06-18T09:26:37Z</time>
      </trkpt>
      <trkpt lat="48.60492" lon="-2.06519">
        <ele>48</ele>
        <time>2017-06-18T09:26:41Z</time>
      </trkpt>
      <trkpt lat="48.60495" lon="-2.06544">
        <ele>48</ele>
        <time>2017-06-18T09:26:47Z</time>
      </trkpt>
      <trkpt lat="48.605" lon="-2.06562">
        <ele>49</ele>
        <time>2017-06-18T09:26:51Z</time>
      </trkpt>
      <trkpt lat="48.60505" lon="-2.06587">
        <ele>48</ele>
        <time>2017-06-18T09:26:57Z</time>
      </trkpt>
      <trkpt lat="48.60512" lon="-2.06623">
        <ele>51</ele>
        <time>2017-06-18T09:27:04Z</time>
      </trkpt>
      <trkpt lat="48.60518" lon="-2.06642">
        <ele>53</ele>
        <time>2017-06-18T09:27:07Z</time>
      </trkpt>
      <trkpt lat="48.60523" lon="-2.06662">
        <ele>55</ele>
        <time>2017-06-18T09:27:11Z</time>
      </trkpt>
      <trkpt lat="48.60529" lon="-2.06692">
        <ele>53</ele>
        <time>2017-06-18T09:27:17Z</time>
      </trkpt>
      <trkpt lat="48.60537" lon="-2.06725">
        <ele>53</ele>
        <time>2017-06-18T09:27:25Z</time>
      </trkpt>
      <trkpt lat="48.60543" lon="-2.06741">
        <ele>51</ele>
        <time>2017-06-18T09:27:28Z</time>
      </trkpt>
      <trkpt lat="48.60548" lon="-2.06762">
        <ele>50</ele>
        <time>2017-06-18T09:27:32Z</time>
      </trkpt>
      <trkpt lat="48.60567" lon="-2.06778">
        <ele>52</ele>
        <time>2017-06-18T09:27:39Z</time>
      </trkpt>
      <trkpt lat="48.60576" lon="-2.06756">
        <ele>52</ele>
        <time>2017-06-18T09:27:43Z</time>
      </trkpt>
      <trkpt lat="48.60581" lon="-2.06735">
        <ele>52</ele>
        <time>2017-06-18T09:27:46Z</time>
      </trkpt>
      <trkpt lat="48.60594" lon="-2.06701">
        <ele>53</ele>
        <time>2017-06-18T09:27:51Z</time>
      </trkpt>
      <trkpt lat="48.60619" lon="-2.06672">
        <ele>51</ele>
        <time>2017-06-18T09:27:58Z</time>
      </trkpt>
      <trkpt lat="48.60648" lon="-2.06657">
        <ele>52</ele>
        <time>2017-06-18T09:28:03Z</time>
      </trkpt>
      <trkpt lat="48.60682" lon="-2.0664">
        <ele>51</ele>
        <time>2017-06-18T09:28:10Z</time>
      </trkpt>
      <trkpt lat="48.60686" lon="-2.06635">
        <ele>52</ele>
        <time>2017-06-18T09:28:11Z</time>
      </trkpt>
      <trkpt lat="48.60709" lon="-2.06625">
        <ele>50</ele>
        <time>2017-06-18T09:28:16Z</time>
      </trkpt>
      <trkpt lat="48.60728" lon="-2.06608">
        <ele>50</ele>
        <time>2017-06-18T09:28:21Z</time>
      </trkpt>
      <trkpt lat="48.60746" lon="-2.06567">
        <ele>50</ele>
        <time>2017-06-18T09:28:27Z</time>
      </trkpt>
      <trkpt lat="48.60761" lon="-2.06547">
        <ele>51</ele>
        <time>2017-06-18T09:28:31Z</time>
      </trkpt>
      <trkpt lat="48.60785" lon="-2.06542">
        <ele>50</ele>
        <time>2017-06-18T09:28:37Z</time>
      </trkpt>
      <trkpt lat="48.60808" lon="-2.06529">
        <ele>50</ele>
        <time>2017-06-18T09:28:41Z</time>
      </trkpt>
      <trkpt lat="48.60828" lon="-2.06511">
        <ele>50</ele>
        <time>2017-06-18T09:28:47Z</time>
      </trkpt>
      <trkpt lat="48.60842" lon="-2.06496">
        <ele>52</ele>
        <time>2017-06-18T09:28:52Z</time>
      </trkpt>
      <trkpt lat="48.60863" lon="-2.065">
        <ele>52</ele>
        <time>2017-06-18T09:29:00Z</time>
      </trkpt>
      <trkpt lat="48.60866" lon="-2.06504">
        <ele>54</ele>
        <time>2017-06-18T09:29:01Z</time>
      </trkpt>
      <trkpt lat="48.60892" lon="-2.06491">
        <ele>53</ele>
        <time>2017-06-18T09:29:11Z</time>
      </trkpt>
      <trkpt lat="48.60897" lon="-2.0649">
        <ele>53</ele>
        <time>2017-06-18T09:29:12Z</time>
      </trkpt>
      <trkpt lat="48.60906" lon="-2.06487">
        <ele>58</ele>
        <time>2017-06-18T09:29:17Z</time>
      </trkpt>
      <trkpt lat="48.60926" lon="-2.06483">
        <ele>61</ele>
        <time>2017-06-18T09:29:22Z</time>
      </trkpt>
      <trkpt lat="48.60954" lon="-2.06483">
        <ele>66</ele>
        <time>2017-06-18T09:29:27Z</time>
      </trkpt>
      <trkpt lat="48.60991" lon="-2.06474">
        <ele>63</ele>
        <time>2017-06-18T09:29:35Z</time>
      </trkpt>
      <trkpt lat="48.61004" lon="-2.06473">
        <ele>64</ele>
        <time>2017-06-18T09:29:36Z</time>
      </trkpt>
      <trkpt lat="48.6103" lon="-2.0646">
        <ele>62</ele>
        <time>2017-06-18T09:29:43Z</time>
      </trkpt>
      <trkpt lat="48.61073" lon="-2.06459">
        <ele>62</ele>
        <time>2017-06-18T09:29:51Z</time>
      </trkpt>
      <trkpt lat="48.61083" lon="-2.06458">
        <ele>63</ele>
        <time>2017-06-18T09:29:53Z</time>
      </trkpt>
      <trkpt lat="48.61099" lon="-2.06449">
        <ele>64</ele>
        <time>2017-06-18T09:29:57Z</time>
      </trkpt>
      <trkpt lat="48.6114" lon="-2.06439">
        <ele>70</ele>
        <time>2017-06-18T09:30:05Z</time>
      </trkpt>
      <trkpt lat="48.61162" lon="-2.06428">
        <ele>65</ele>
        <time>2017-06-18T09:30:10Z</time>
      </trkpt>
      <trkpt lat="48.61173" lon="-2.06431">
        <ele>62</ele>
        <time>2017-06-18T09:30:12Z</time>
      </trkpt>
      <trkpt lat="48.61213" lon="-2.06461">
        <ele>55</ele>
        <time>2017-06-18T09:30:21Z</time>
      </trkpt>
      <trkpt lat="48.61218" lon="-2.06464">
        <ele>55</ele>
        <time>2017-06-18T09:30:21Z</time>
      </trkpt>
      <trkpt lat="48.61245" lon="-2.06494">
        <ele>54</ele>
        <time>2017-06-18T09:30:28Z</time>
      </trkpt>
      <trkpt lat="48.61265" lon="-2.06513">
        <ele>51</ele>
        <time>2017-06-18T09:30:32Z</time>
      </trkpt>
      <trkpt lat="48.61284" lon="-2.06533">
        <ele>51</ele>
        <time>2017-06-18T09:30:38Z</time>
      </trkpt>
      <trkpt lat="48.61318" lon="-2.06563">
        <ele>52</ele>
        <time>2017-06-18T09:30:48Z</time>
      </trkpt>
      <trkpt lat="48.61333" lon="-2.06559">
        <ele>53</ele>
        <time>2017-06-18T09:30:52Z</time>
      </trkpt>
      <trkpt lat="48.6135" lon="-2.06551">
        <ele>52</ele>
        <time>2017-06-18T09:30:57Z</time>
      </trkpt>
      <trkpt lat="48.61372" lon="-2.06541">
        <ele>53</ele>
        <time>2017-06-18T09:31:03Z</time>
      </trkpt>
      <trkpt lat="48.61378" lon="-2.06539">
        <ele>51</ele>
        <time>2017-06-18T09:31:06Z</time>
      </trkpt>
      <trkpt lat="48.61405" lon="-2.06528">
        <ele>52</ele>
        <time>2017-06-18T09:31:13Z</time>
      </trkpt>
      <trkpt lat="48.61417" lon="-2.06522">
        <ele>50</ele>
        <time>2017-06-18T09:31:16Z</time>
      </trkpt>
      <trkpt lat="48.61451" lon="-2.06506">
        <ele>45</ele>
        <time>2017-06-18T09:31:25Z</time>
      </trkpt>
      <trkpt lat="48.61456" lon="-2.06504">
        <ele>45</ele>
        <time>2017-06-18T09:31:26Z</time>
      </trkpt>
      <trkpt lat="48.6149" lon="-2.06496">
        <ele>48</ele>
        <time>2017-06-18T09:31:32Z</time>
      </trkpt>
      <trkpt lat="48.61512" lon="-2.06486">
        <ele>50</ele>
        <time>2017-06-18T09:31:36Z</time>
      </trkpt>
      <trkpt lat="48.61536" lon="-2.06474">
        <ele>49</ele>
        <time>2017-06-18T09:31:41Z</time>
      </trkpt>
      <trkpt lat="48.61563" lon="-2.06467">
        <ele>50</ele>
        <time>2017-06-18T09:31:45Z</time>
      </trkpt>
      <trkpt lat="48.61606" lon="-2.0645">
        <ele>48</ele>
        <time>2017-06-18T09:31:53Z</time>
      </trkpt>
      <trkpt lat="48.61621" lon="-2.06442">
        <ele>49</ele>
        <time>2017-06-18T09:31:55Z</time>
      </trkpt>
      <trkpt lat="48.61652" lon="-2.06433">
        <ele>50</ele>
        <time>2017-06-18T09:32:00Z</time>
      </trkpt>
      <trkpt lat="48.61705" lon="-2.06413">
        <ele>47</ele>
        <time>2017-06-18T09:32:10Z</time>
      </trkpt>
      <trkpt lat="48.6171" lon="-2.06411">
        <ele>47</ele>
        <time>2017-06-18T09:32:11Z</time>
      </trkpt>
      <trkpt lat="48.61737" lon="-2.06398">
        <ele>49</ele>
        <time>2017-06-18T09:32:15Z</time>
      </trkpt>
      <trkpt lat="48.61782" lon="-2.06381">
        <ele>48</ele>
        <time>2017-06-18T09:32:23Z</time>
      </trkpt>
      <trkpt lat="48.6181" lon="-2.06369">
        <ele>48</ele>
        <time>2017-06-18T09:32:27Z</time>
      </trkpt>
      <trkpt lat="48.61841" lon="-2.06356">
        <ele>49</ele>
        <time>2017-06-18T09:32:32Z</time>
      </trkpt>
      <trkpt lat="48.6186" lon="-2.0635">
        <ele>47</ele>
        <time>2017-06-18T09:32:35Z</time>
      </trkpt>
      <trkpt lat="48.61899" lon="-2.06336">
        <ele>44</ele>
        <time>2017-06-18T09:32:42Z</time>
      </trkpt>
      <trkpt lat="48.61952" lon="-2.06312">
        <ele>46</ele>
        <time>2017-06-18T09:32:50Z</time>
      </trkpt>
      <trkpt lat="48.61969" lon="-2.06305">
        <ele>48</ele>
        <time>2017-06-18T09:32:53Z</time>
      </trkpt>
      <trkpt lat="48.61985" lon="-2.06303">
        <ele>47</ele>
        <time>2017-06-18T09:32:57Z</time>
      </trkpt>
      <trkpt lat="48.62012" lon="-2.06295">
        <ele>45</ele>
        <time>2017-06-18T09:33:02Z</time>
      </trkpt>
      <trkpt lat="48.62036" lon="-2.06293">
        <ele>42</ele>
        <time>2017-06-18T09:33:06Z</time>
      </trkpt>
      <trkpt lat="48.62071" lon="-2.06274">
        <ele>44</ele>
        <time>2017-06-18T09:33:12Z</time>
      </trkpt>
      <trkpt lat="48.6212" lon="-2.06254">
        <ele>46</ele>
        <time>2017-06-18T09:33:19Z</time>
      </trkpt>
      <trkpt lat="48.62142" lon="-2.06246">
        <ele>46</ele>
        <time>2017-06-18T09:33:22Z</time>
      </trkpt>
      <trkpt lat="48.62177" lon="-2.06231">
        <ele>44</ele>
        <time>2017-06-18T09:33:27Z</time>
      </trkpt>
      <trkpt lat="48.622" lon="-2.06221">
        <ele>42</ele>
        <time>2017-06-18T09:33:31Z</time>
      </trkpt>
      <trkpt lat="48.62228" lon="-2.06211">
        <ele>42</ele>
        <time>2017-06-18T09:33:36Z</time>
      </trkpt>
      <trkpt lat="48.62268" lon="-2.06194">
        <ele>42</ele>
        <time>2017-06-18T09:33:42Z</time>
      </trkpt>
      <trkpt lat="48.62285" lon="-2.06189">
        <ele>43</ele>
        <time>2017-06-18T09:33:45Z</time>
      </trkpt>
      <trkpt lat="48.62306" lon="-2.0618">
        <ele>40</ele>
        <time>2017-06-18T09:33:50Z</time>
      </trkpt>
      <trkpt lat="48.62313" lon="-2.06177">
        <ele>40</ele>
        <time>2017-06-18T09:33:58Z</time>
      </trkpt>
      <trkpt lat="48.62315" lon="-2.06178">
        <ele>40</ele>
        <time>2017-06-18T09:34:01Z</time>
      </trkpt>
      <trkpt lat="48.62322" lon="-2.06179">
        <ele>41</ele>
        <time>2017-06-18T09:34:06Z</time>
      </trkpt>
      <trkpt lat="48.62329" lon="-2.06181">
        <ele>39</ele>
        <time>2017-06-18T09:34:11Z</time>
      </trkpt>
      <trkpt lat="48.62333" lon="-2.06206">
        <ele>38</ele>
        <time>2017-06-18T09:34:15Z</time>
      </trkpt>
      <trkpt lat="48.62336" lon="-2.06242">
        <ele>38</ele>
        <time>2017-06-18T09:34:21Z</time>
      </trkpt>
      <trkpt lat="48.62341" lon="-2.0627">
        <ele>38</ele>
        <time>2017-06-18T09:34:25Z</time>
      </trkpt>
      <trkpt lat="48.62348" lon="-2.06298">
        <ele>36</ele>
        <time>2017-06-18T09:34:31Z</time>
      </trkpt>
      <trkpt lat="48.62355" lon="-2.06312">
        <ele>37</ele>
        <time>2017-06-18T09:34:36Z</time>
      </trkpt>
      <trkpt lat="48.6238" lon="-2.06299">
        <ele>37</ele>
        <time>2017-06-18T09:34:41Z</time>
      </trkpt>
      <trkpt lat="48.62405" lon="-2.06292">
        <ele>39</ele>
        <time>2017-06-18T09:34:47Z</time>
      </trkpt>
      <trkpt lat="48.62432" lon="-2.06285">
        <ele>40</ele>
        <time>2017-06-18T09:34:52Z</time>
      </trkpt>
      <trkpt lat="48.62452" lon="-2.06277">
        <ele>40</ele>
        <time>2017-06-18T09:34:56Z</time>
      </trkpt>
      <trkpt lat="48.62477" lon="-2.06268">
        <ele>40</ele>
        <time>2017-06-18T09:35:01Z</time>
      </trkpt>
      <trkpt lat="48.62503" lon="-2.0626">
        <ele>40</ele>
        <time>2017-06-18T09:35:06Z</time>
      </trkpt>
      <trkpt lat="48.62526" lon="-2.06253">
        <ele>38</ele>
        <time>2017-06-18T09:35:11Z</time>
      </trkpt>
      <trkpt lat="48.6255" lon="-2.06244">
        <ele>39</ele>
        <time>2017-06-18T09:35:15Z</time>
      </trkpt>
      <trkpt lat="48.62574" lon="-2.0623">
        <ele>40</ele>
        <time>2017-06-18T09:35:21Z</time>
      </trkpt>
      <trkpt lat="48.62598" lon="-2.06214">
        <ele>40</ele>
        <time>2017-06-18T09:35:26Z</time>
      </trkpt>
      <trkpt lat="48.62624" lon="-2.06197">
        <ele>39</ele>
        <time>2017-06-18T09:35:30Z</time>
      </trkpt>
      <trkpt lat="48.62645" lon="-2.06181">
        <ele>41</ele>
        <time>2017-06-18T09:35:36Z</time>
      </trkpt>
      <trkpt lat="48.62663" lon="-2.06183">
        <ele>41</ele>
        <time>2017-06-18T09:35:42Z</time>
      </trkpt>
      <trkpt lat="48.62689" lon="-2.06198">
        <ele>40</ele>
        <time>2017-06-18T09:35:47Z</time>
      </trkpt>
      <trkpt lat="48.62712" lon="-2.06212">
        <ele>39</ele>
        <time>2017-06-18T09:35:51Z</time>
      </trkpt>
      <trkpt lat="48.62738" lon="-2.06234">
        <ele>39</ele>
        <time>2017-06-18T09:35:56Z</time>
      </trkpt>
      <trkpt lat="48.62758" lon="-2.06259">
        <ele>41</ele>
        <time>2017-06-18T09:36:01Z</time>
      </trkpt>
      <trkpt lat="48.62783" lon="-2.06287">
        <ele>38</ele>
        <time>2017-06-18T09:36:06Z</time>
      </trkpt>
      <trkpt lat="48.62823" lon="-2.06349">
        <ele>38</ele>
        <time>2017-06-18T09:36:15Z</time>
      </trkpt>
      <trkpt lat="48.62828" lon="-2.06358">
        <ele>38</ele>
        <time>2017-06-18T09:36:16Z</time>
      </trkpt>
      <trkpt lat="48.62851" lon="-2.06394">
        <ele>38</ele>
        <time>2017-06-18T09:36:21Z</time>
      </trkpt>
      <trkpt lat="48.62875" lon="-2.06423">
        <ele>38</ele>
        <time>2017-06-18T09:36:25Z</time>
      </trkpt>
      <trkpt lat="48.62903" lon="-2.06443">
        <ele>39</ele>
        <time>2017-06-18T09:36:30Z</time>
      </trkpt>
      <trkpt lat="48.62936" lon="-2.06468">
        <ele>38</ele>
        <time>2017-06-18T09:36:36Z</time>
      </trkpt>
      <trkpt lat="48.62963" lon="-2.06487">
        <ele>40</ele>
        <time>2017-06-18T09:36:42Z</time>
      </trkpt>
      <trkpt lat="48.62997" lon="-2.0651">
        <ele>40</ele>
        <time>2017-06-18T09:36:49Z</time>
      </trkpt>
      <trkpt lat="48.63007" lon="-2.06518">
        <ele>41</ele>
        <time>2017-06-18T09:36:51Z</time>
      </trkpt>
      <trkpt lat="48.63033" lon="-2.06531">
        <ele>42</ele>
        <time>2017-06-18T09:36:56Z</time>
      </trkpt>
      <trkpt lat="48.63053" lon="-2.06513">
        <ele>40</ele>
        <time>2017-06-18T09:37:00Z</time>
      </trkpt>
      <trkpt lat="48.63069" lon="-2.06529">
        <ele>38</ele>
        <time>2017-06-18T09:37:06Z</time>
      </trkpt>
      <trkpt lat="48.63074" lon="-2.06556">
        <ele>38</ele>
        <time>2017-06-18T09:37:11Z</time>
      </trkpt>
      <trkpt lat="48.63074" lon="-2.0659">
        <ele>40</ele>
        <time>2017-06-18T09:37:15Z</time>
      </trkpt>
      <trkpt lat="48.63073" lon="-2.06626">
        <ele>40</ele>
        <time>2017-06-18T09:37:21Z</time>
      </trkpt>
      <trkpt lat="48.63077" lon="-2.06657">
        <ele>40</ele>
        <time>2017-06-18T09:37:26Z</time>
      </trkpt>
      <trkpt lat="48.63078" lon="-2.06687">
        <ele>42</ele>
        <time>2017-06-18T09:37:30Z</time>
      </trkpt>
      <trkpt lat="48.63078" lon="-2.06712">
        <ele>41</ele>
        <time>2017-06-18T09:37:35Z</time>
      </trkpt>
      <trkpt lat="48.63077" lon="-2.06725">
        <ele>40</ele>
        <time>2017-06-18T09:37:41Z</time>
      </trkpt>
      <trkpt lat="48.63076" lon="-2.06723">
        <ele>40</ele>
        <time>2017-06-18T09:37:45Z</time>
      </trkpt>
      <trkpt lat="48.63077" lon="-2.06724">
        <ele>40</ele>
        <time>2017-06-18T09:37:48Z</time>
      </trkpt>
      <trkpt lat="48.63077" lon="-2.06724">
        <ele>41</ele>
        <time>2017-06-18T09:37:51Z</time>
      </trkpt>
      <trkpt lat="48.63077" lon="-2.06724">
        <ele>41</ele>
        <time>2017-06-18T09:37:55Z</time>
      </trkpt>
      <trkpt lat="48.63077" lon="-2.06724">
        <ele>41</ele>
        <time>2017-06-18T09:37:58Z</time>
      </trkpt>
      <trkpt lat="48.63077" lon="-2.06726">
        <ele>40</ele>
        <time>2017-06-18T09:38:01Z</time>
      </trkpt>
      <trkpt lat="48.63079" lon="-2.06749">
        <ele>39</ele>
        <time>2017-06-18T09:38:06Z</time>
      </trkpt>
      <trkpt lat="48.63079" lon="-2.06781">
        <ele>39</ele>
        <time>2017-06-18T09:38:11Z</time>
      </trkpt>
      <trkpt lat="48.63083" lon="-2.06818">
        <ele>38</ele>
        <time>2017-06-18T09:38:15Z</time>
      </trkpt>
      <trkpt lat="48.63089" lon="-2.06885">
        <ele>34</ele>
        <time>2017-06-18T09:38:23Z</time>
      </trkpt>
      <trkpt lat="48.63089" lon="-2.06905">
        <ele>33</ele>
        <time>2017-06-18T09:38:26Z</time>
      </trkpt>
      <trkpt lat="48.63091" lon="-2.06957">
        <ele>32</ele>
        <time>2017-06-18T09:38:31Z</time>
      </trkpt>
      <trkpt lat="48.63093" lon="-2.07004">
        <ele>32</ele>
        <time>2017-06-18T09:38:35Z</time>
      </trkpt>
      <trkpt lat="48.63095" lon="-2.0707">
        <ele>30</ele>
        <time>2017-06-18T09:38:45Z</time>
      </trkpt>
      <trkpt lat="48.63095" lon="-2.07088">
        <ele>28</ele>
        <time>2017-06-18T09:38:47Z</time>
      </trkpt>
      <trkpt lat="48.63098" lon="-2.0712">
        <ele>28</ele>
        <time>2017-06-18T09:38:51Z</time>
      </trkpt>
      <trkpt lat="48.63099" lon="-2.07152">
        <ele>29</ele>
        <time>2017-06-18T09:38:55Z</time>
      </trkpt>
      <trkpt lat="48.63098" lon="-2.072">
        <ele>27</ele>
        <time>2017-06-18T09:39:01Z</time>
      </trkpt>
      <trkpt lat="48.63093" lon="-2.07236">
        <ele>30</ele>
        <time>2017-06-18T09:39:07Z</time>
      </trkpt>
      <trkpt lat="48.63086" lon="-2.07266">
        <ele>30</ele>
        <time>2017-06-18T09:39:11Z</time>
      </trkpt>
      <trkpt lat="48.63074" lon="-2.07301">
        <ele>30</ele>
        <time>2017-06-18T09:39:16Z</time>
      </trkpt>
      <trkpt lat="48.6306" lon="-2.07334">
        <ele>31</ele>
        <time>2017-06-18T09:39:21Z</time>
      </trkpt>
      <trkpt lat="48.63047" lon="-2.07367">
        <ele>31</ele>
        <time>2017-06-18T09:39:26Z</time>
      </trkpt>
      <trkpt lat="48.63037" lon="-2.07398">
        <ele>31</ele>
        <time>2017-06-18T09:39:30Z</time>
      </trkpt>
      <trkpt lat="48.63018" lon="-2.07445">
        <ele>27</ele>
        <time>2017-06-18T09:39:37Z</time>
      </trkpt>
      <trkpt lat="48.62997" lon="-2.07498">
        <ele>27</ele>
        <time>2017-06-18T09:39:44Z</time>
      </trkpt>
      <trkpt lat="48.62989" lon="-2.07522">
        <ele>28</ele>
        <time>2017-06-18T09:39:47Z</time>
      </trkpt>
      <trkpt lat="48.62979" lon="-2.07547">
        <ele>27</ele>
        <time>2017-06-18T09:39:50Z</time>
      </trkpt>
      <trkpt lat="48.62976" lon="-2.07558">
        <ele>27</ele>
        <time>2017-06-18T09:39:57Z</time>
      </trkpt>
      <trkpt lat="48.62962" lon="-2.07557">
        <ele>27</ele>
        <time>2017-06-18T09:40:00Z</time>
      </trkpt>
      <trkpt lat="48.62925" lon="-2.07541">
        <ele>29</ele>
        <time>2017-06-18T09:40:08Z</time>
      </trkpt>
      <trkpt lat="48.62902" lon="-2.07525">
        <ele>29</ele>
        <time>2017-06-18T09:40:12Z</time>
      </trkpt>
      <trkpt lat="48.6287" lon="-2.07501">
        <ele>31</ele>
        <time>2017-06-18T09:40:17Z</time>
      </trkpt>
      <trkpt lat="48.62856" lon="-2.0749">
        <ele>32</ele>
        <time>2017-06-18T09:40:20Z</time>
      </trkpt>
      <trkpt lat="48.62832" lon="-2.0747">
        <ele>31</ele>
        <time>2017-06-18T09:40:25Z</time>
      </trkpt>
      <trkpt lat="48.62809" lon="-2.07448">
        <ele>33</ele>
        <time>2017-06-18T09:40:31Z</time>
      </trkpt>
      <trkpt lat="48.62786" lon="-2.07426">
        <ele>32</ele>
        <time>2017-06-18T09:40:35Z</time>
      </trkpt>
      <trkpt lat="48.62762" lon="-2.07404">
        <ele>32</ele>
        <time>2017-06-18T09:40:40Z</time>
      </trkpt>
      <trkpt lat="48.62739" lon="-2.07377">
        <ele>34</ele>
        <time>2017-06-18T09:40:46Z</time>
      </trkpt>
      <trkpt lat="48.62721" lon="-2.07371">
        <ele>35</ele>
        <time>2017-06-18T09:40:50Z</time>
      </trkpt>
      <trkpt lat="48.627" lon="-2.07378">
        <ele>34</ele>
        <time>2017-06-18T09:40:55Z</time>
      </trkpt>
      <trkpt lat="48.62696" lon="-2.07406">
        <ele>35</ele>
        <time>2017-06-18T09:41:01Z</time>
      </trkpt>
      <trkpt lat="48.62692" lon="-2.07438">
        <ele>35</ele>
        <time>2017-06-18T09:41:06Z</time>
      </trkpt>
      <trkpt lat="48.62688" lon="-2.07472">
        <ele>35</ele>
        <time>2017-06-18T09:41:10Z</time>
      </trkpt>
      <trkpt lat="48.62682" lon="-2.07506">
        <ele>36</ele>
        <time>2017-06-18T09:41:15Z</time>
      </trkpt>
      <trkpt lat="48.62677" lon="-2.07538">
        <ele>37</ele>
        <time>2017-06-18T09:41:21Z</time>
      </trkpt>
      <trkpt lat="48.62675" lon="-2.0757">
        <ele>37</ele>
        <time>2017-06-18T09:41:26Z</time>
      </trkpt>
      <trkpt lat="48.62669" lon="-2.07603">
        <ele>36</ele>
        <time>2017-06-18T09:41:31Z</time>
      </trkpt>
      <trkpt lat="48.62664" lon="-2.07638">
        <ele>36</ele>
        <time>2017-06-18T09:41:35Z</time>
      </trkpt>
      <trkpt lat="48.62659" lon="-2.07677">
        <ele>34</ele>
        <time>2017-06-18T09:41:41Z</time>
      </trkpt>
      <trkpt lat="48.62652" lon="-2.07719">
        <ele>33</ele>
        <time>2017-06-18T09:41:46Z</time>
      </trkpt>
      <trkpt lat="48.62644" lon="-2.07767">
        <ele>32</ele>
        <time>2017-06-18T09:41:51Z</time>
      </trkpt>
      <trkpt lat="48.62632" lon="-2.0781">
        <ele>33</ele>
        <time>2017-06-18T09:41:56Z</time>
      </trkpt>
      <trkpt lat="48.62621" lon="-2.07849">
        <ele>34</ele>
        <time>2017-06-18T09:42:01Z</time>
      </trkpt>
      <trkpt lat="48.62611" lon="-2.07883">
        <ele>35</ele>
        <time>2017-06-18T09:42:05Z</time>
      </trkpt>
      <trkpt lat="48.62602" lon="-2.07913">
        <ele>37</ele>
        <time>2017-06-18T09:42:10Z</time>
      </trkpt>
      <trkpt lat="48.62596" lon="-2.07938">
        <ele>37</ele>
        <time>2017-06-18T09:42:15Z</time>
      </trkpt>
      <trkpt lat="48.6259" lon="-2.07967">
        <ele>37</ele>
        <time>2017-06-18T09:42:20Z</time>
      </trkpt>
      <trkpt lat="48.62581" lon="-2.08005">
        <ele>38</ele>
        <time>2017-06-18T09:42:25Z</time>
      </trkpt>
      <trkpt lat="48.62573" lon="-2.08042">
        <ele>38</ele>
        <time>2017-06-18T09:42:31Z</time>
      </trkpt>
      <trkpt lat="48.62565" lon="-2.08077">
        <ele>39</ele>
        <time>2017-06-18T09:42:36Z</time>
      </trkpt>
      <trkpt lat="48.62556" lon="-2.08112">
        <ele>39</ele>
        <time>2017-06-18T09:42:41Z</time>
      </trkpt>
      <trkpt lat="48.62547" lon="-2.08143">
        <ele>39</ele>
        <time>2017-06-18T09:42:46Z</time>
      </trkpt>
      <trkpt lat="48.62542" lon="-2.08159">
        <ele>38</ele>
        <time>2017-06-18T09:42:51Z</time>
      </trkpt>
      <trkpt lat="48.62539" lon="-2.0817">
        <ele>40</ele>
        <time>2017-06-18T09:42:55Z</time>
      </trkpt>
      <trkpt lat="48.62529" lon="-2.08184">
        <ele>40</ele>
        <time>2017-06-18T09:43:00Z</time>
      </trkpt>
      <trkpt lat="48.6252" lon="-2.08206">
        <ele>40</ele>
        <time>2017-06-18T09:43:06Z</time>
      </trkpt>
      <trkpt lat="48.62509" lon="-2.08229">
        <ele>41</ele>
        <time>2017-06-18T09:43:10Z</time>
      </trkpt>
      <trkpt lat="48.62499" lon="-2.08251">
        <ele>42</ele>
        <time>2017-06-18T09:43:15Z</time>
      </trkpt>
      <trkpt lat="48.6249" lon="-2.08272">
        <ele>44</ele>
        <time>2017-06-18T09:43:20Z</time>
      </trkpt>
      <trkpt lat="48.62479" lon="-2.08294">
        <ele>44</ele>
        <time>2017-06-18T09:43:26Z</time>
      </trkpt>
      <trkpt lat="48.62469" lon="-2.08316">
        <ele>45</ele>
        <time>2017-06-18T09:43:30Z</time>
      </trkpt>
      <trkpt lat="48.62459" lon="-2.08337">
        <ele>45</ele>
        <time>2017-06-18T09:43:35Z</time>
      </trkpt>
      <trkpt lat="48.62449" lon="-2.0836">
        <ele>45</ele>
        <time>2017-06-18T09:43:41Z</time>
      </trkpt>
      <trkpt lat="48.62432" lon="-2.08396">
        <ele>43</ele>
        <time>2017-06-18T09:43:46Z</time>
      </trkpt>
      <trkpt lat="48.62406" lon="-2.08454">
        <ele>41</ele>
        <time>2017-06-18T09:43:52Z</time>
      </trkpt>
      <trkpt lat="48.62385" lon="-2.08498">
        <ele>38</ele>
        <time>2017-06-18T09:43:55Z</time>
      </trkpt>
      <trkpt lat="48.62361" lon="-2.08539">
        <ele>35</ele>
        <time>2017-06-18T09:44:01Z</time>
      </trkpt>
      <trkpt lat="48.62328" lon="-2.08592">
        <ele>33</ele>
        <time>2017-06-18T09:44:06Z</time>
      </trkpt>
      <trkpt lat="48.62297" lon="-2.0864">
        <ele>31</ele>
        <time>2017-06-18T09:44:11Z</time>
      </trkpt>
      <trkpt lat="48.62278" lon="-2.08682">
        <ele>31</ele>
        <time>2017-06-18T09:44:15Z</time>
      </trkpt>
      <trkpt lat="48.62263" lon="-2.08732">
        <ele>30</ele>
        <time>2017-06-18T09:44:21Z</time>
      </trkpt>
      <trkpt lat="48.62245" lon="-2.08769">
        <ele>32</ele>
        <time>2017-06-18T09:44:26Z</time>
      </trkpt>
      <trkpt lat="48.62212" lon="-2.08816">
        <ele>32</ele>
        <time>2017-06-18T09:44:33Z</time>
      </trkpt>
      <trkpt lat="48.62198" lon="-2.08839">
        <ele>33</ele>
        <time>2017-06-18T09:44:35Z</time>
      </trkpt>
      <trkpt lat="48.62178" lon="-2.08878">
        <ele>33</ele>
        <time>2017-06-18T09:44:41Z</time>
      </trkpt>
      <trkpt lat="48.62161" lon="-2.08918">
        <ele>33</ele>
        <time>2017-06-18T09:44:46Z</time>
      </trkpt>
      <trkpt lat="48.62146" lon="-2.08957">
        <ele>33</ele>
        <time>2017-06-18T09:44:51Z</time>
      </trkpt>
      <trkpt lat="48.62128" lon="-2.08999">
        <ele>33</ele>
        <time>2017-06-18T09:44:55Z</time>
      </trkpt>
      <trkpt lat="48.62114" lon="-2.09034">
        <ele>34</ele>
        <time>2017-06-18T09:45:01Z</time>
      </trkpt>
      <trkpt lat="48.62104" lon="-2.0906">
        <ele>36</ele>
        <time>2017-06-18T09:45:06Z</time>
      </trkpt>
      <trkpt lat="48.62099" lon="-2.09071">
        <ele>37</ele>
        <time>2017-06-18T09:45:10Z</time>
      </trkpt>
      <trkpt lat="48.621" lon="-2.0907">
        <ele>37</ele>
        <time>2017-06-18T09:45:16Z</time>
      </trkpt>
      <trkpt lat="48.621" lon="-2.09069">
        <ele>37</ele>
        <time>2017-06-18T09:45:19Z</time>
      </trkpt>
      <trkpt lat="48.621" lon="-2.0907">
        <ele>37</ele>
        <time>2017-06-18T09:45:21Z</time>
      </trkpt>
      <trkpt lat="48.621" lon="-2.0907">
        <ele>37</ele>
        <time>2017-06-18T09:45:25Z</time>
      </trkpt>
      <trkpt lat="48.62099" lon="-2.0907">
        <ele>37</ele>
        <time>2017-06-18T09:45:28Z</time>
      </trkpt>
      <trkpt lat="48.62097" lon="-2.09075">
        <ele>37</ele>
        <time>2017-06-18T09:45:30Z</time>
      </trkpt>
      <trkpt lat="48.62084" lon="-2.09099">
        <ele>35</ele>
        <time>2017-06-18T09:45:36Z</time>
      </trkpt>
      <trkpt lat="48.62062" lon="-2.09147">
        <ele>33</ele>
        <time>2017-06-18T09:45:41Z</time>
      </trkpt>
      <trkpt lat="48.62038" lon="-2.09198">
        <ele>30</ele>
        <time>2017-06-18T09:45:46Z</time>
      </trkpt>
      <trkpt lat="48.62006" lon="-2.09263">
        <ele>30</ele>
        <time>2017-06-18T09:45:51Z</time>
      </trkpt>
      <trkpt lat="48.61974" lon="-2.09331">
        <ele>27</ele>
        <time>2017-06-18T09:45:58Z</time>
      </trkpt>
      <trkpt lat="48.61967" lon="-2.09347">
        <ele>26</ele>
        <time>2017-06-18T09:46:01Z</time>
      </trkpt>
      <trkpt lat="48.6193" lon="-2.09405">
        <ele>30</ele>
        <time>2017-06-18T09:46:10Z</time>
      </trkpt>
      <trkpt lat="48.61921" lon="-2.09415">
        <ele>30</ele>
        <time>2017-06-18T09:46:11Z</time>
      </trkpt>
      <trkpt lat="48.61895" lon="-2.09444">
        <ele>29</ele>
        <time>2017-06-18T09:46:18Z</time>
      </trkpt>
      <trkpt lat="48.61876" lon="-2.09462">
        <ele>31</ele>
        <time>2017-06-18T09:46:22Z</time>
      </trkpt>
      <trkpt lat="48.61853" lon="-2.09488">
        <ele>35</ele>
        <time>2017-06-18T09:46:29Z</time>
      </trkpt>
      <trkpt lat="48.6185" lon="-2.09492">
        <ele>35</ele>
        <time>2017-06-18T09:46:31Z</time>
      </trkpt>
      <trkpt lat="48.61832" lon="-2.09516">
        <ele>36</ele>
        <time>2017-06-18T09:46:35Z</time>
      </trkpt>
      <trkpt lat="48.61826" lon="-2.09545">
        <ele>35</ele>
        <time>2017-06-18T09:46:40Z</time>
      </trkpt>
      <trkpt lat="48.61835" lon="-2.09588">
        <ele>39</ele>
        <time>2017-06-18T09:46:50Z</time>
      </trkpt>
      <trkpt lat="48.61835" lon="-2.09591">
        <ele>39</ele>
        <time>2017-06-18T09:46:51Z</time>
      </trkpt>
    </trkseg>
  </trk>
</gpx>